Terminal Aerodrome Forecast
Issued by NWS

Home | Current Version | Previous Version | Text Only | Print | Product List | Glossary On
Versions: 1 2 3 4 5 6 7 8 9 10 11 12 13 14 15 16
000
FTUS44 KBMX 072340
TAFTOI
TAF
KTOI 072340Z 0800/0824 30006KT P6SM OVC025
     FM080500 32004KT P6SM OVC015
     FM081000 32005KT P6SM OVC025
     FM081400 32006KT P6SM OVC050
     FM081700 34012G21KT P6SM BKN200=

USA.gov is the U.S. government's official web portal to all federal, state and local government web resources and services.